createdAt,value
2019-05-30T00:01:38.949Z,28.00
2019-05-30T00:04:08.625Z,26.85
2019-05-30T00:06:38.290Z,27.45
2019-05-30T00:09:09.739Z,27.60
2019-05-30T00:11:39.472Z,26.17
2019-05-30T00:14:09.117Z,22.05
2019-05-30T00:16:40.270Z,23.70
2019-05-30T00:19:09.930Z,22.82
2019-05-30T00:21:39.581Z,26.15
2019-05-30T00:24:09.232Z,24.45
2019-05-30T00:26:38.990Z,25.88
2019-05-30T00:29:08.642Z,27.65
2019-05-30T00:31:38.276Z,21.25
2019-05-30T00:34:07.943Z,24.47
2019-05-30T00:36:37.589Z,29.23
2019-05-30T00:39:08.039Z,22.87
2019-05-30T00:41:37.774Z,28.92
2019-05-30T00:44:07.481Z,20.62
2019-05-30T00:46:37.126Z,23.30
2019-05-30T00:49:06.821Z,25.00
2019-05-30T00:51:36.466Z,23.67
2019-05-30T00:54:07.020Z,22.67
2019-05-30T00:56:37.830Z,23.27
2019-05-30T00:59:07.553Z,22.85
2019-05-30T01:01:38.219Z,20.68
2019-05-30T01:04:07.876Z,19.42
2019-05-30T01:06:37.599Z,23.10
2019-05-30T01:09:07.685Z,16.05
2019-05-30T01:11:37.310Z,18.05
2019-05-30T01:14:07.538Z,16.12
2019-05-30T01:16:37.496Z,22.37
2019-05-30T01:19:07.444Z,21.87
2019-05-30T01:21:37.172Z,17.65
2019-05-30T01:24:07.695Z,15.03
2019-05-30T01:26:37.554Z,15.13
2019-05-30T01:29:07.759Z,14.73
2019-05-30T01:31:38.668Z,13.90
2019-05-30T01:34:08.327Z,14.87
2019-05-30T01:36:38.057Z,20.35
2019-05-30T01:39:08.260Z,16.25
2019-05-30T01:41:38.060Z,22.22
2019-05-30T01:44:08.316Z,17.00
2019-05-30T01:46:38.185Z,15.30
2019-05-30T01:49:08.724Z,12.53
2019-05-30T01:51:38.489Z,14.73
2019-05-30T01:54:08.792Z,12.10
2019-05-30T01:56:38.571Z,14.73
2019-05-30T01:59:08.925Z,13.58
2019-05-30T02:01:38.657Z,14.83
2019-05-30T02:04:09.485Z,13.38
2019-05-30T02:06:40.245Z,13.38
2019-05-30T02:09:10.836Z,13.00
2019-05-30T02:11:41.084Z,19.37
2019-05-30T02:14:10.747Z,11.57
2019-05-30T02:16:40.393Z,12.65
2019-05-30T02:19:10.541Z,16.50
2019-05-30T02:21:40.449Z,13.72
2019-05-30T02:24:12.090Z,13.53
2019-05-30T02:26:41.657Z,17.67
2019-05-30T02:29:11.193Z,15.70
2019-05-30T02:31:40.855Z,12.23
2019-05-30T02:34:12.184Z,17.20
2019-05-30T02:36:42.036Z,13.68
2019-05-30T02:39:12.233Z,15.38
2019-05-30T02:41:42.008Z,8.63
2019-05-30T02:44:12.400Z,14.25
2019-05-30T02:46:42.405Z,12.23
2019-05-30T02:49:13.832Z,8.88
2019-05-30T02:51:43.409Z,15.40
2019-05-30T02:54:13.407Z,10.15
2019-05-30T02:56:43.199Z,11.70
2019-05-30T02:59:13.710Z,9.00
2019-05-30T03:01:59.861Z,10.00
2019-05-30T03:04:15.129Z,10.68
2019-05-30T03:06:45.069Z,12.18
2019-05-30T03:09:15.123Z,9.00
2019-05-30T03:11:44.868Z,10.18
2019-05-30T03:14:19.103Z,9.53
2019-05-30T03:16:45.882Z,10.85
2019-05-30T03:19:15.541Z,10.50
2019-05-30T03:21:45.206Z,12.60
2019-05-30T03:24:14.845Z,10.32
2019-05-30T03:26:44.493Z,9.45
2019-05-30T03:29:14.498Z,7.65
2019-05-30T03:31:45.044Z,16.17
2019-05-30T03:34:26.224Z,8.43
2019-05-30T03:36:46.002Z,10.45
2019-05-30T03:39:15.710Z,14.40
2019-05-30T03:41:45.399Z,11.68
2019-05-30T03:44:15.692Z,12.88
2019-05-30T03:46:48.519Z,9.58
2019-05-30T03:49:21.111Z,11.07
2019-05-30T03:51:53.293Z,8.27
2019-05-30T03:54:25.176Z,12.35
2019-05-30T03:57:15.893Z,12.53
2019-05-30T04:00:00.389Z,10.50
2019-05-30T04:02:56.017Z,11.95
2019-05-30T04:05:23.315Z,12.35
2019-05-30T04:07:55.922Z,8.80
2019-05-30T04:10:28.586Z,11.20
2019-05-30T04:13:21.837Z,9.65
2019-05-30T04:15:51.491Z,8.13
2019-05-30T04:18:21.146Z,12.85
2019-05-30T04:20:51.137Z,8.83
2019-05-30T04:23:20.798Z,10.23
2019-05-30T04:25:50.362Z,8.75
2019-05-30T04:28:19.942Z,11.48
2019-05-30T04:30:49.629Z,10.28
2019-05-30T04:33:32.772Z,9.80
2019-05-30T04:35:50.599Z,9.50
2019-05-30T04:38:20.279Z,10.53
2019-05-30T04:40:50.900Z,8.40
2019-05-30T04:43:20.519Z,9.38
2019-05-30T04:45:50.133Z,6.72
2019-05-30T04:48:21.254Z,8.70
2019-05-30T04:50:51.142Z,8.68
2019-05-30T04:53:21.183Z,8.15
2019-05-30T04:55:51.915Z,6.92
2019-05-30T04:58:24.142Z,8.43
2019-05-30T05:00:53.997Z,8.75
2019-05-30T05:03:44.146Z,8.85
2019-05-30T05:05:55.004Z,8.83
2019-05-30T05:08:25.526Z,6.33
2019-05-30T05:10:55.178Z,7.03
2019-05-30T05:13:24.813Z,10.82
2019-05-30T05:15:54.453Z,5.72
2019-05-30T05:18:24.108Z,7.28
2019-05-30T05:20:53.751Z,9.25
2019-05-30T05:23:23.628Z,6.45
2019-05-30T05:26:00.855Z,6.97
2019-05-30T05:28:25.585Z,5.33
2019-05-30T05:30:55.255Z,7.72
2019-05-30T05:33:24.892Z,5.22
2019-05-30T05:35:54.531Z,11.40
2019-05-30T05:38:24.501Z,8.33
2019-05-30T05:40:54.236Z,5.22
2019-05-30T05:43:24.461Z,7.22
2019-05-30T05:45:54.298Z,3.83
2019-05-30T05:48:24.690Z,5.92
2019-05-30T05:50:54.560Z,4.28
2019-05-30T05:53:25.129Z,6.28
2019-05-30T05:55:54.847Z,3.60
2019-05-30T05:58:26.459Z,8.00
2019-05-30T06:00:55.901Z,6.70
2019-05-30T06:03:25.535Z,5.45
2019-05-30T06:05:55.477Z,7.15
2019-05-30T06:08:25.799Z,8.75
2019-05-30T06:10:55.883Z,6.92
2019-05-30T06:13:25.491Z,6.53
2019-05-30T06:15:55.123Z,5.60
2019-05-30T06:18:24.863Z,7.92
2019-05-30T06:20:54.538Z,5.75
2019-05-30T06:23:24.234Z,6.12
2019-05-30T06:25:53.876Z,5.58
2019-05-30T06:28:24.181Z,6.78
2019-05-30T06:30:54.366Z,6.90
2019-05-30T06:33:24.973Z,8.53
2019-05-30T06:35:54.741Z,8.10
2019-05-30T06:38:25.280Z,7.05
2019-05-30T06:40:55.022Z,5.83
2019-05-30T06:43:26.033Z,9.15
2019-05-30T06:45:55.868Z,5.70
2019-05-30T06:48:26.825Z,5.03
2019-05-30T06:50:56.636Z,7.28
2019-05-30T06:53:27.290Z,6.80
2019-05-30T06:55:57.105Z,7.22
2019-05-30T06:58:41.411Z,5.22
2019-05-30T07:00:58.032Z,6.47
2019-05-30T07:03:28.476Z,7.08
2019-05-30T07:05:58.772Z,9.10
2019-05-30T07:08:28.895Z,5.35
2019-05-30T07:10:58.601Z,8.03
2019-05-30T07:13:29.244Z,5.03
2019-05-30T07:15:59.068Z,9.85
2019-05-30T07:18:33.190Z,6.47
2019-05-30T07:21:00.089Z,9.85
2019-05-30T07:23:30.206Z,7.25
2019-05-30T07:26:03.244Z,7.62
2019-05-30T07:28:32.012Z,8.50
2019-05-30T07:31:01.810Z,7.70
2019-05-30T07:33:32.920Z,8.48
2019-05-30T07:36:02.697Z,6.65
2019-05-30T07:38:32.685Z,7.35
2019-05-30T07:41:02.412Z,7.92
2019-05-30T07:43:33.409Z,7.15
2019-05-30T07:46:04.398Z,6.72
2019-05-30T07:48:34.378Z,4.42
2019-05-30T07:51:04.094Z,6.85
2019-05-30T07:53:34.900Z,9.40
2019-05-30T07:56:06.491Z,8.53
2019-05-30T07:58:37.323Z,5.75
2019-05-30T08:01:07.165Z,6.25
2019-05-30T08:03:36.803Z,7.42
2019-05-30T08:06:06.379Z,7.55
2019-05-30T08:08:36.223Z,6.85
2019-05-30T08:11:09.482Z,7.28
2019-05-30T08:13:37.404Z,8.40
2019-05-30T08:16:07.405Z,8.58
2019-05-30T08:18:37.933Z,7.72
2019-05-30T08:21:07.779Z,6.30
2019-05-30T08:23:38.412Z,5.22
2019-05-30T08:26:08.150Z,5.67
2019-05-30T08:28:38.684Z,5.87
2019-05-30T08:31:09.066Z,5.70
2019-05-30T08:33:39.720Z,3.30
2019-05-30T08:36:09.563Z,2.90
2019-05-30T08:38:39.413Z,6.17
2019-05-30T08:41:09.155Z,3.77
2019-05-30T08:43:39.674Z,5.25
2019-05-30T08:46:09.528Z,8.83
2019-05-30T08:48:40.350Z,4.08
2019-05-30T08:51:10.127Z,5.40
2019-05-30T08:53:40.651Z,4.62
2019-05-30T08:56:10.408Z,6.90
2019-05-30T08:58:40.931Z,4.80
2019-05-30T09:01:10.820Z,2.83
2019-05-30T09:03:40.442Z,3.95
2019-05-30T09:06:10.124Z,2.83
2019-05-30T09:08:40.077Z,3.33
2019-05-30T09:11:09.799Z,4.87
2019-05-30T09:13:40.426Z,6.75
2019-05-30T09:16:11.399Z,5.08
2019-05-30T09:18:43.106Z,5.40
2019-05-30T09:21:13.889Z,3.35
2019-05-30T09:23:43.951Z,7.15
2019-05-30T09:26:13.749Z,3.95
2019-05-30T09:28:44.262Z,5.08
2019-05-30T09:31:13.998Z,2.62
2019-05-30T09:33:44.656Z,6.37
2019-05-30T09:36:14.464Z,4.08
2019-05-30T09:38:45.314Z,9.73
2019-05-30T09:41:15.205Z,3.25
2019-05-30T09:43:46.338Z,5.87
2019-05-30T09:46:16.080Z,5.72
2019-05-30T09:48:46.729Z,6.00
2019-05-30T09:51:16.500Z,6.00
2019-05-30T09:53:46.158Z,4.67
2019-05-30T09:56:16.836Z,3.05
2019-05-30T09:58:47.671Z,3.25
2019-05-30T10:01:17.505Z,4.50
2019-05-30T10:03:48.371Z,5.85
2019-05-30T10:06:29.046Z,5.95
2019-05-30T10:08:49.673Z,5.30
2019-05-30T10:11:20.483Z,4.53
2019-05-30T10:13:51.662Z,6.30
2019-05-30T10:16:23.739Z,4.60
2019-05-30T10:18:53.401Z,7.33
2019-05-30T10:21:23.060Z,4.95
2019-05-30T10:23:53.695Z,6.28
2019-05-30T10:26:23.431Z,5.47
2019-05-30T10:28:53.373Z,4.62
2019-05-30T10:31:23.211Z,4.35
2019-05-30T10:33:53.254Z,5.08
2019-05-30T10:36:22.940Z,5.70
2019-05-30T10:38:53.819Z,4.37
2019-05-30T10:41:23.625Z,5.30
2019-05-30T10:43:53.274Z,5.78
2019-05-30T10:46:22.900Z,5.17
2019-05-30T10:48:52.827Z,7.35
2019-05-30T10:51:22.471Z,5.80
2019-05-30T10:53:52.687Z,6.25
2019-05-30T10:56:23.559Z,4.95
2019-05-30T10:58:53.276Z,5.87
2019-05-30T11:01:23.134Z,10.63
2019-05-30T11:03:52.788Z,7.05
2019-05-30T11:06:25.342Z,5.95
2019-05-30T11:08:58.061Z,7.17
2019-05-30T11:11:27.698Z,7.10
2019-05-30T11:13:57.419Z,4.17
2019-05-30T11:16:27.084Z,3.72
2019-05-30T11:18:57.913Z,7.20
2019-05-30T11:21:27.781Z,3.17
2019-05-30T11:23:58.376Z,7.35
2019-05-30T11:26:29.043Z,4.97
2019-05-30T11:28:58.902Z,5.55
2019-05-30T11:31:29.619Z,6.37
2019-05-30T11:33:59.287Z,3.67
2019-05-30T11:36:28.856Z,3.98
2019-05-30T11:38:59.463Z,4.72
2019-05-30T11:41:29.140Z,8.35
2019-05-30T11:44:00.077Z,7.17
2019-05-30T11:46:30.221Z,4.10
2019-05-30T11:49:00.807Z,5.90
2019-05-30T11:51:30.481Z,2.90
2019-05-30T11:54:00.881Z,7.45
2019-05-30T11:56:30.930Z,4.97
2019-05-30T11:59:00.590Z,3.90
2019-05-30T12:01:30.220Z,4.28
2019-05-30T12:04:00.803Z,7.03
2019-05-30T12:06:30.589Z,7.85
2019-05-30T12:09:01.155Z,4.70
2019-05-30T12:11:31.861Z,4.67
2019-05-30T12:14:01.649Z,7.03
2019-05-30T12:16:31.718Z,5.22
2019-05-30T12:19:01.889Z,4.37
2019-05-30T12:21:31.803Z,5.53
2019-05-30T12:24:02.651Z,10.05
2019-05-30T12:26:33.965Z,4.12
2019-05-30T12:29:05.096Z,4.92
2019-05-30T12:31:34.739Z,9.08
2019-05-30T12:34:04.431Z,8.18
2019-05-30T12:36:34.170Z,4.65
2019-05-30T12:39:05.516Z,4.75
2019-05-30T12:41:35.198Z,6.75
2019-05-30T12:44:05.040Z,7.17
2019-05-30T12:46:34.676Z,4.92
2019-05-30T12:49:24.885Z,6.85
2019-05-30T12:51:56.153Z,6.92
2019-05-30T12:54:26.280Z,7.25
2019-05-30T12:56:56.578Z,2.80
2019-05-30T12:59:26.505Z,6.05
2019-05-30T13:01:56.810Z,4.00
2019-05-30T13:04:26.608Z,6.65
2019-05-30T13:06:57.679Z,5.58
2019-05-30T13:09:27.783Z,5.67
2019-05-30T13:11:58.449Z,5.58
2019-05-30T13:14:28.216Z,5.15
2019-05-30T13:17:33.339Z,6.10
2019-05-30T13:20:03.484Z,7.30
2019-05-30T13:22:33.347Z,4.83
2019-05-30T13:25:03.820Z,7.40
2019-05-30T13:27:34.604Z,6.85
2019-05-30T13:30:08.422Z,3.42
2019-05-30T13:32:38.076Z,5.25
2019-05-30T13:35:08.171Z,10.90
2019-05-30T13:37:37.826Z,4.25
2019-05-30T13:40:23.679Z,7.28
2019-05-30T13:42:40.168Z,5.42
2019-05-30T13:45:10.875Z,3.95
2019-05-30T13:47:41.639Z,7.45
2019-05-30T13:50:14.315Z,5.15
2019-05-30T13:52:44.022Z,9.88
2019-05-30T13:55:14.529Z,7.10
2019-05-30T13:57:44.245Z,5.70
2019-05-30T14:00:16.063Z,7.17
2019-05-30T14:02:45.719Z,7.00
2019-05-30T14:05:15.459Z,5.92
2019-05-30T14:07:45.093Z,6.47
2019-05-30T14:10:16.450Z,6.20
2019-05-30T14:12:47.345Z,5.62
2019-05-30T14:15:17.380Z,4.87
2019-05-30T14:17:47.114Z,9.28
2019-05-30T14:20:17.447Z,5.95
2019-05-30T14:22:47.209Z,5.40
2019-05-30T14:25:19.475Z,7.62
2019-05-30T14:27:49.139Z,9.38
2019-05-30T14:30:19.494Z,9.00
2019-05-30T14:32:49.155Z,5.40
2019-05-30T14:35:19.080Z,8.58
2019-05-30T14:37:48.715Z,7.78
2019-05-30T14:40:18.775Z,6.72
2019-05-30T14:42:48.409Z,8.15
2019-05-30T14:45:18.677Z,12.35
2019-05-30T14:47:48.317Z,10.35
2019-05-30T14:50:18.286Z,11.70
2019-05-30T14:52:48.270Z,7.50
2019-05-30T14:55:18.334Z,6.15
2019-05-30T14:57:50.103Z,7.58
2019-05-30T15:00:20.561Z,4.30
2019-05-30T15:02:50.224Z,6.75
2019-05-30T15:05:19.860Z,3.52
2019-05-30T15:07:49.518Z,5.35
2019-05-30T15:10:20.201Z,6.80
2019-05-30T15:12:49.860Z,5.80
2019-05-30T15:15:20.078Z,6.87
2019-05-30T15:17:49.806Z,8.15
2019-05-30T15:20:20.262Z,8.15
2019-05-30T15:22:49.875Z,6.60
2019-05-30T15:25:19.649Z,8.68
2019-05-30T15:27:49.279Z,5.62
2019-05-30T15:30:19.126Z,6.78
2019-05-30T15:35:43.627Z,6.10
2019-05-30T15:38:13.285Z,4.65
2019-05-30T15:40:42.916Z,5.78
2019-05-30T15:43:13.438Z,6.40
2019-05-30T15:45:43.214Z,8.13
2019-05-30T15:48:14.187Z,7.22
2019-05-30T15:50:44.066Z,8.13
2019-05-30T15:53:14.878Z,13.22
2019-05-30T15:55:44.874Z,9.90
2019-05-30T15:58:15.742Z,8.25
2019-05-30T16:00:46.518Z,6.53
2019-05-30T16:03:16.534Z,7.70
2019-05-30T16:05:46.308Z,8.88
2019-05-30T16:08:16.772Z,9.43
2019-05-30T16:10:46.542Z,12.07
2019-05-30T16:13:17.700Z,7.83
2019-05-30T16:15:47.378Z,8.03
2019-05-30T16:18:17.747Z,7.70
2019-05-30T16:20:47.470Z,7.80
2019-05-30T16:23:18.702Z,11.63
2019-05-30T16:25:48.579Z,9.15
2019-05-30T16:28:18.391Z,8.43
2019-05-30T16:30:48.594Z,7.67
2019-05-30T16:33:18.257Z,8.28
2019-05-30T16:35:47.961Z,7.83
2019-05-30T16:38:18.081Z,8.00
2019-05-30T16:40:47.759Z,8.05
2019-05-30T16:43:18.195Z,7.28
2019-05-30T16:45:47.934Z,7.78
2019-05-30T16:48:18.371Z,7.62
2019-05-30T16:50:49.130Z,7.17
2019-05-30T16:53:19.087Z,6.50
2019-05-30T16:55:50.195Z,6.28
2019-05-30T16:58:20.428Z,8.23
2019-05-30T17:00:51.224Z,11.38
2019-05-30T17:03:21.924Z,6.83
2019-05-30T17:05:52.322Z,5.25
2019-05-30T17:08:24.493Z,7.00
2019-05-30T17:10:54.227Z,8.18
2019-05-30T17:13:23.962Z,5.83
2019-05-30T17:15:53.600Z,5.97
2019-05-30T17:18:24.405Z,10.35
2019-05-30T17:20:54.005Z,7.42
2019-05-30T17:23:24.820Z,6.78
2019-05-30T17:25:54.504Z,7.55
2019-05-30T17:28:24.462Z,4.10
2019-05-30T17:30:54.254Z,6.60
2019-05-30T17:33:25.165Z,5.50
2019-05-30T17:35:55.285Z,5.17
2019-05-30T17:38:24.941Z,6.72
2019-05-30T17:40:54.580Z,4.58
2019-05-30T17:43:25.035Z,8.50
2019-05-30T17:45:54.842Z,4.28
2019-05-30T17:48:25.568Z,8.58
2019-05-30T17:50:55.258Z,8.70
2019-05-30T17:53:25.948Z,7.47
2019-05-30T17:55:55.727Z,7.85
2019-05-30T17:58:25.977Z,8.08
2019-05-30T18:00:57.163Z,8.90
2019-05-30T18:03:28.432Z,5.78
2019-05-30T18:05:58.194Z,12.73
2019-05-30T18:08:28.926Z,9.15
2019-05-30T18:10:58.672Z,8.78
2019-05-30T18:13:29.240Z,8.30
2019-05-30T18:15:59.148Z,10.18
2019-05-30T18:18:29.314Z,12.25
2019-05-30T18:20:59.034Z,12.00
2019-05-30T18:23:29.682Z,13.60
2019-05-30T18:25:59.547Z,10.72
2019-05-30T18:28:29.870Z,13.08
2019-05-30T18:30:59.632Z,19.35
2019-05-30T18:33:30.295Z,11.22
2019-05-30T18:36:00.031Z,11.63
2019-05-30T18:38:30.459Z,10.63
2019-05-30T18:41:11.035Z,14.93
2019-05-30T18:43:31.640Z,12.75
2019-05-30T18:46:01.292Z,11.90
2019-05-30T18:48:31.495Z,11.73
2019-05-30T18:51:01.367Z,14.93
2019-05-30T18:53:31.020Z,17.32
2019-05-30T18:56:00.675Z,14.60
2019-05-30T18:58:31.197Z,14.47
2019-05-30T19:01:00.977Z,11.53
2019-05-30T19:03:31.351Z,7.45
2019-05-30T19:06:01.448Z,12.23
2019-05-30T19:08:32.021Z,10.93
2019-05-30T19:11:01.767Z,15.25
2019-05-30T19:13:31.428Z,10.28
2019-05-30T19:16:01.075Z,12.88
2019-05-30T19:18:31.595Z,14.28
2019-05-30T19:21:01.393Z,14.63
2019-05-30T19:23:32.049Z,16.40
2019-05-30T19:26:01.786Z,9.75
2019-05-30T19:28:32.488Z,11.93
2019-05-30T19:31:02.290Z,12.43
2019-05-30T19:33:32.970Z,13.35
2019-05-30T19:36:02.708Z,16.65
2019-05-30T19:38:33.349Z,13.70
2019-05-30T19:41:03.064Z,13.08
2019-05-30T19:43:33.845Z,15.40
2019-05-30T19:46:03.451Z,14.73
2019-05-30T19:48:34.303Z,14.38
2019-05-30T19:51:04.181Z,15.13
2019-05-30T19:53:34.938Z,12.65
2019-05-30T19:56:04.856Z,14.07
2019-05-30T19:58:35.616Z,19.37
2019-05-30T20:01:05.501Z,15.98
2019-05-30T20:03:41.597Z,13.48
2019-05-30T20:06:06.573Z,11.43
2019-05-30T20:08:53.489Z,12.43
2019-05-30T20:11:07.691Z,8.63
2019-05-30T20:13:37.412Z,8.23
2019-05-30T20:16:07.052Z,13.70
2019-05-30T20:18:37.668Z,11.33
2019-05-30T20:21:07.419Z,13.90
2019-05-30T20:23:51.735Z,12.68
2019-05-30T20:26:08.547Z,15.90
2019-05-30T20:28:38.790Z,12.75
2019-05-30T20:31:08.567Z,11.12
2019-05-30T20:33:38.441Z,19.45
2019-05-30T20:36:08.144Z,14.68
2019-05-30T20:38:38.659Z,14.65
2019-05-30T20:41:08.459Z,12.10
2019-05-30T20:43:38.963Z,20.60
2019-05-30T20:46:22.327Z,17.82
2019-05-30T20:48:43.249Z,13.53
2019-05-30T20:51:21.274Z,11.85
2019-05-30T20:53:44.707Z,12.45
2019-05-30T20:56:14.389Z,15.08
2019-05-30T20:58:44.033Z,10.75
2019-05-30T21:01:13.697Z,14.70
2019-05-30T21:03:44.528Z,12.05
2019-05-30T21:06:14.196Z,13.93
2019-05-30T21:08:45.237Z,11.63
2019-05-30T21:11:15.400Z,13.35
2019-05-30T21:13:47.025Z,12.45
2019-05-30T21:16:18.327Z,12.82
2019-05-30T21:18:47.980Z,10.93
2019-05-30T21:21:17.669Z,16.45
2019-05-30T21:23:47.363Z,12.80
2019-05-30T21:26:16.937Z,12.80
2019-05-30T21:28:47.340Z,14.40
2019-05-30T21:31:18.185Z,14.47
2019-05-30T21:33:49.144Z,10.88
2019-05-30T21:36:18.936Z,16.25
2019-05-30T21:38:48.575Z,12.90
2019-05-30T21:41:18.366Z,15.38
2019-05-30T21:43:49.002Z,11.63
2019-05-30T21:46:18.738Z,13.40
2019-05-30T21:48:49.489Z,8.25
2019-05-30T21:51:19.125Z,13.50
2019-05-30T21:53:49.727Z,16.48
2019-05-30T21:56:19.427Z,9.80
2019-05-30T21:58:50.466Z,15.18
2019-05-30T22:01:23.190Z,13.90
2019-05-30T22:03:52.834Z,18.25
2019-05-30T22:06:22.569Z,15.72
2019-05-30T22:08:52.236Z,15.80
2019-05-30T22:11:21.947Z,16.77
2019-05-30T22:13:52.059Z,16.85
2019-05-30T22:16:21.849Z,16.23
2019-05-30T22:18:52.256Z,10.13
2019-05-30T22:21:22.367Z,14.85
2019-05-30T22:23:52.522Z,19.37
2019-05-30T22:26:22.263Z,17.35
2019-05-30T22:28:52.730Z,14.05
2019-05-30T22:31:23.498Z,17.62
2019-05-30T22:33:53.376Z,19.40
2019-05-30T22:36:23.087Z,16.45
2019-05-30T22:38:53.193Z,16.87
2019-05-30T22:41:23.155Z,13.45
2019-05-30T22:43:53.021Z,18.48
2019-05-30T22:46:22.829Z,18.23
2019-05-30T22:48:52.950Z,16.52
2019-05-30T22:51:22.798Z,12.88
2019-05-30T22:53:53.279Z,17.73
2019-05-30T22:56:23.078Z,15.25
2019-05-30T22:58:53.832Z,13.65
2019-05-30T23:01:23.568Z,18.02
2019-05-30T23:03:54.004Z,20.92
2019-05-30T23:06:23.829Z,18.73
2019-05-30T23:08:54.724Z,18.52
2019-05-30T23:11:25.758Z,13.78
2019-05-30T23:13:56.415Z,10.95
2019-05-30T23:16:26.128Z,17.40
2019-05-30T23:18:56.879Z,16.02
2019-05-30T23:21:27.632Z,14.33
2019-05-30T23:23:57.404Z,15.00
2019-05-30T23:26:27.009Z,16.02
2019-05-30T23:28:57.914Z,18.67
2019-05-30T23:31:28.698Z,14.23
2019-05-30T23:33:58.628Z,19.98
2019-05-30T23:36:28.485Z,14.30
2019-05-30T23:38:58.945Z,18.57
2019-05-30T23:41:28.680Z,16.12
2019-05-30T23:44:10.667Z,18.65
2019-05-30T23:46:29.682Z,19.48
2019-05-30T23:48:59.831Z,19.60
2019-05-30T23:51:29.602Z,19.23
2019-05-30T23:54:00.524Z,17.85
2019-05-30T23:56:30.297Z,18.92
2019-05-30T23:59:01.457Z,21.85
